Time;durP1;ratioP1;P1;durP2;ratioP2;P2;SDS_P1;SDS_P2;PMS_P1;PMS_P2;Temp;Humidity;BMP_temperature;BMP_pressure;BME280_temperature;BME280_humidity;BME280_pressure;Samples;Min_cycle;Max_cycle;Signal;HPM_P1;HPM_P2
2022/01/10 00:00:21;;;;;;;26.93;11.40;;;2.80;99.70;;;;;;4991346;28;20936;-67
2022/01/10 00:02:53;;;;;;;24.10;12.70;;;2.70;99.70;;;;;;4991988;28;20438;-66
2022/01/10 00:05:20;;;;;;;25.40;12.60;;;2.60;99.70;;;;;;4991586;28;20478;-66
2022/01/10 00:07:47;;;;;;;28.70;13.00;;;2.60;99.70;;;;;;4991791;28;20818;-66
2022/01/10 00:10:14;;;;;;;28.70;12.90;;;2.50;99.70;;;;;;4992002;28;20446;-67
2022/01/10 00:12:41;;;;;;;28.43;12.70;;;2.50;99.70;;;;;;4991994;28;20473;-66
2022/01/10 00:15:09;;;;;;;27.20;12.90;;;2.50;99.70;;;;;;4991816;28;20470;-66
2022/01/10 00:17:38;;;;;;;27.57;13.23;;;2.40;99.70;;;;;;4991778;28;20482;-67
2022/01/10 00:20:08;;;;;;;24.37;11.97;;;2.40;99.70;;;;;;4991655;28;21014;-66
2022/01/10 00:22:35;;;;;;;28.23;12.20;;;2.40;99.70;;;;;;4991872;28;21026;-66
2022/01/10 00:25:04;;;;;;;23.70;11.90;;;2.40;99.70;;;;;;4991641;28;20473;-66
2022/01/10 00:27:31;;;;;;;20.67;11.60;;;2.40;99.70;;;;;;4991940;28;20798;-66
2022/01/10 00:29:58;;;;;;;23.63;11.60;;;2.40;99.70;;;;;;4991281;28;20821;-66
2022/01/10 00:32:24;;;;;;;25.73;11.50;;;2.40;99.70;;;;;;4991764;28;20816;-66
2022/01/10 00:34:52;;;;;;;22.33;11.53;;;2.40;99.70;;;;;;4991642;28;20473;-66
2022/01/10 00:37:20;;;;;;;20.63;10.60;;;2.40;99.70;;;;;;4991763;28;20490;-66
2022/01/10 00:39:48;;;;;;;21.67;11.33;;;2.40;99.70;;;;;;4991307;28;20462;-66
2022/01/10 00:42:15;;;;;;;24.20;10.90;;;2.40;99.70;;;;;;4991722;28;20450;-66
2022/01/10 00:44:49;;;;;;;25.17;12.17;;;2.40;99.70;;;;;;4991485;28;20482;-67
2022/01/10 00:47:16;;;;;;;22.13;11.77;;;2.40;99.70;;;;;;4991816;28;20509;-67
2022/01/10 00:49:43;;;;;;;27.43;13.20;;;2.40;99.70;;;;;;4991320;28;20833;-66
2022/01/10 00:52:10;;;;;;;28.60;12.43;;;2.40;99.70;;;;;;4991524;28;20449;-66
2022/01/10 00:54:38;;;;;;;25.37;12.40;;;2.40;99.70;;;;;;4991628;28;20473;-66
2022/01/10 00:57:05;;;;;;;28.40;13.70;;;2.40;99.70;;;;;;4991392;28;20878;-67
2022/01/10 00:59:32;;;;;;;28.33;14.07;;;2.40;99.70;;;;;;4991214;28;20450;-66
2022/01/10 01:01:59;;;;;;;28.60;13.83;;;2.30;99.70;;;;;;4991459;28;20449;-66
2022/01/10 01:04:26;;;;;;;31.80;14.33;;;2.20;99.70;;;;;;4990947;28;20513;-66
2022/01/10 01:06:53;;;;;;;28.60;14.20;;;2.40;99.70;;;;;;4991525;28;20818;-67
2022/01/10 01:09:25;;;;;;;32.40;15.00;;;2.40;99.70;;;;;;4991088;28;20458;-66
2022/01/10 01:12:15;;;;;;;32.37;14.77;;;2.40;99.70;;;;;;4992069;28;20935;-67
2022/01/10 01:14:54;;;;;;;27.43;12.90;;;2.40;99.70;;;;;;4995024;28;20896;-67
2022/01/10 01:17:35;;;;;;;27.60;13.90;;;2.50;99.70;;;;;;4994839;28;20492;-67
2022/01/10 01:20:09;;;;;;;28.43;13.00;;;2.50;99.70;;;;;;4994962;28;20446;-66
2022/01/10 01:25:20;;;;;;;32.60;14.63;;;2.40;99.70;;;;;;4994934;28;20524;-67
2022/01/10 01:27:51;;;;;;;29.13;13.87;;;2.50;99.70;;;;;;4994268;28;20940;-66
2022/01/10 01:30:18;;;;;;;31.77;14.80;;;2.60;99.70;;;;;;4994856;28;20489;-66
2022/01/10 01:32:45;;;;;;;30.67;14.03;;;2.50;99.70;;;;;;4994538;28;20443;-66
2022/01/10 01:35:12;;;;;;;32.17;14.50;;;2.50;99.70;;;;;;4994773;28;20565;-67
2022/01/10 01:37:39;;;;;;;27.43;13.80;;;2.50;99.70;;;;;;4994411;28;20862;-67
2022/01/10 01:40:10;;;;;;;30.23;14.20;;;2.60;99.70;;;;;;4994483;28;20450;-66
2022/01/10 01:42:39;;;;;;;28.40;14.10;;;2.50;99.70;;;;;;4994629;28;20959;-67
2022/01/10 01:45:10;;;;;;;31.77;14.03;;;2.60;99.70;;;;;;4994356;28;20478;-66
2022/01/10 01:47:36;;;;;;;30.07;14.67;;;2.60;99.70;;;;;;4994364;28;20439;-67
2022/01/10 01:50:06;;;;;;;30.83;14.03;;;2.60;99.70;;;;;;4993978;28;20501;-66
2022/01/10 01:52:32;;;;;;;29.97;14.17;;;2.60;99.70;;;;;;4994268;28;20450;-66
2022/01/10 01:55:00;;;;;;;30.40;13.90;;;2.50;99.70;;;;;;4994392;28;20470;-66
2022/01/10 01:57:28;;;;;;;33.93;15.23;;;2.50;99.70;;;;;;4994011;28;20869;-66
2022/01/10 01:59:55;;;;;;;32.17;15.40;;;2.50;99.70;;;;;;4993812;28;20450;-67
2022/01/10 02:02:23;;;;;;;28.20;15.07;;;2.50;99.70;;;;;;4994104;28;20493;-67
2022/01/10 02:04:50;;;;;;;34.20;16.50;;;2.60;99.70;;;;;;4993577;28;20466;-67
2022/01/10 02:07:17;;;;;;;33.30;15.10;;;2.70;99.70;;;;;;4994589;28;20453;-67
2022/01/10 02:09:44;;;;;;;32.53;15.70;;;2.70;99.70;;;;;;4993683;28;20541;-66
2022/01/10 02:12:11;;;;;;;29.17;14.40;;;2.60;99.70;;;;;;4993975;28;20443;-67
2022/01/10 02:14:40;;;;;;;33.83;15.43;;;2.60;99.70;;;;;;4993798;28;20470;-67
2022/01/10 02:17:07;;;;;;;27.60;13.53;;;2.70;99.70;;;;;;4993869;28;20505;-67
2022/01/10 02:19:35;;;;;;;31.03;15.43;;;2.80;99.70;;;;;;4993528;28;20449;-67
2022/01/10 02:22:03;;;;;;;33.13;15.07;;;2.80;99.70;;;;;;4993833;28;20454;-67
2022/01/10 02:24:30;;;;;;;32.43;15.17;;;2.70;99.70;;;;;;4993075;28;20470;-67
2022/01/10 02:26:57;;;;;;;31.00;15.30;;;2.60;99.70;;;;;;4993661;28;20457;-67
2022/01/10 02:29:24;;;;;;;30.80;14.27;;;2.70;99.70;;;;;;4993355;28;20465;-67
2022/01/10 02:31:50;;;;;;;34.30;14.80;;;2.60;99.70;;;;;;4993595;28;20450;-67
2022/01/10 02:34:19;;;;;;;28.50;14.67;;;2.60;99.70;;;;;;4993749;28;20470;-66
2022/01/10 02:36:46;;;;;;;34.10;15.30;;;2.60;99.70;;;;;;4993448;28;20549;-66
2022/01/10 02:39:19;;;;;;;30.43;14.37;;;2.50;99.70;;;;;;4993074;28;20486;-67
2022/01/10 02:41:46;;;;;;;29.43;14.10;;;2.50;99.70;;;;;;4993484;28;20835;-67
2022/01/10 02:44:16;;;;;;;29.50;14.73;;;2.50;99.70;;;;;;4993165;28;20618;-67
2022/01/10 02:46:43;;;;;;;31.23;15.83;;;2.50;99.70;;;;;;4993367;28;20446;-67
2022/01/10 02:49:11;;;;;;;32.63;15.90;;;2.40;99.70;;;;;;4992816;28;20438;-66
2022/01/10 02:51:38;;;;;;;31.77;15.00;;;2.40;99.70;;;;;;4993298;28;20451;-66
2022/01/10 02:54:05;;;;;;;32.47;15.27;;;2.60;99.70;;;;;;4993045;28;20837;-67
2022/01/10 02:56:33;;;;;;;32.93;15.70;;;2.50;99.70;;;;;;4993352;28;20446;-66
2022/01/10 02:58:59;;;;;;;30.77;15.37;;;2.50;99.70;;;;;;4992548;28;20482;-66
2022/01/10 03:01:26;;;;;;;32.90;15.50;;;2.50;99.70;;;;;;4993040;28;20493;-66
2022/01/10 03:03:53;;;;;;;28.30;14.93;;;2.50;99.70;;;;;;4992847;28;20454;-67
2022/01/10 03:06:20;;;;;;;28.97;14.47;;;2.50;99.70;;;;;;4992586;28;20500;-67
2022/01/10 03:08:47;;;;;;;26.40;14.33;;;2.50;99.70;;;;;;4992381;28;20449;-67
2022/01/10 03:11:14;;;;;;;25.60;12.90;;;2.70;99.70;;;;;;4992896;28;20457;-67
2022/01/10 03:13:42;;;;;;;24.73;12.60;;;2.60;99.70;;;;;;4992808;28;20943;-67
2022/01/10 03:16:08;;;;;;;25.47;13.50;;;2.60;99.70;;;;;;4992754;28;20549;-66
2022/01/10 03:18:35;;;;;;;28.37;13.20;;;2.50;99.70;;;;;;4992296;28;20486;-66
2022/01/10 03:21:02;;;;;;;24.77;13.00;;;2.40;99.70;;;;;;4992606;28;20457;-66
2022/01/10 03:23:28;;;;;;;26.37;12.60;;;2.40;99.70;;;;;;4992563;28;20473;-66
2022/01/10 03:25:55;;;;;;;26.50;12.83;;;2.50;99.70;;;;;;4992486;28;20462;-66
2022/01/10 03:28:22;;;;;;;27.63;13.47;;;2.50;99.70;;;;;;4992069;28;20829;-66
2022/01/10 03:30:50;;;;;;;30.10;14.20;;;2.60;99.70;;;;;;4992521;28;20453;-66
2022/01/10 03:33:16;;;;;;;24.63;13.23;;;2.50;99.70;;;;;;4992417;28;20451;-66
2022/01/10 03:35:43;;;;;;;34.63;15.43;;;2.90;99.70;;;;;;4992274;28;20466;-66
2022/01/10 03:38:10;;;;;;;31.63;14.70;;;2.70;99.70;;;;;;4991846;28;20482;-66
2022/01/10 03:40:37;;;;;;;27.23;12.70;;;2.60;99.70;;;;;;4992308;28;20450;-67
2022/01/10 03:43:04;;;;;;;30.13;14.53;;;2.60;99.70;;;;;;4992175;28;20497;-66
2022/01/10 03:45:32;;;;;;;26.63;13.90;;;2.60;99.70;;;;;;4992200;28;20484;-66
2022/01/10 03:48:00;;;;;;;28.07;14.23;;;2.60;99.70;;;;;;4991749;28;20446;-66
2022/01/10 03:50:27;;;;;;;26.37;14.20;;;2.50;99.70;;;;;;4992248;28;20446;-67
2022/01/10 03:52:54;;;;;;;29.27;14.20;;;2.50;99.70;;;;;;4992075;28;20450;-66
2022/01/10 03:55:20;;;;;;;28.53;13.37;;;2.60;99.70;;;;;;4992004;28;20505;-66
2022/01/10 03:57:47;;;;;;;23.33;13.50;;;2.50;99.70;;;;;;4991659;28;20861;-66
2022/01/10 04:00:14;;;;;;;27.40;14.03;;;2.50;99.70;;;;;;4992083;28;20794;-66
2022/01/10 04:02:45;;;;;;;28.20;13.33;;;2.50;99.70;;;;;;4991995;28;20446;-67
2022/01/10 04:05:13;;;;;;;26.87;14.30;;;2.50;99.70;;;;;;4991586;28;20462;-66
2022/01/10 04:07:40;;;;;;;27.87;13.60;;;2.50;99.70;;;;;;4991821;28;20442;-64
2022/01/10 04:10:07;;;;;;;26.70;13.10;;;2.60;99.70;;;;;;4991677;28;20497;-67
2022/01/10 04:12:34;;;;;;;29.03;13.97;;;2.60;99.70;;;;;;4991866;28;20443;-67
2022/01/10 04:15:01;;;;;;;27.43;14.00;;;2.60;99.70;;;;;;4991797;28;20474;-66
2022/01/10 04:17:27;;;;;;;29.90;14.23;;;2.50;99.70;;;;;;4991929;28;20447;-67
2022/01/10 04:19:54;;;;;;;29.57;14.57;;;2.60;99.70;;;;;;4991329;28;20450;-67
2022/01/10 04:22:22;;;;;;;30.37;14.80;;;2.50;99.70;;;;;;4991888;28;20463;-66
2022/01/10 04:24:49;;;;;;;34.20;14.13;;;2.60;99.70;;;;;;4991612;28;20462;-67
2022/01/10 04:27:15;;;;;;;29.90;14.50;;;2.60;99.70;;;;;;4991898;28;20447;-67
2022/01/10 04:29:42;;;;;;;26.53;13.30;;;2.70;99.70;;;;;;4991276;28;20439;-66
2022/01/10 04:32:11;;;;;;;31.27;13.33;;;2.80;99.70;;;;;;4991759;28;20446;-66
2022/01/10 04:34:38;;;;;;;24.60;14.00;;;2.70;99.70;;;;;;4991571;28;20474;-66
2022/01/10 04:37:06;;;;;;;26.03;12.80;;;2.80;99.70;;;;;;4991661;28;20537;-66
2022/01/10 04:39:34;;;;;;;32.80;14.60;;;3.10;99.70;;;;;;4991132;28;20544;-67
2022/01/10 04:42:01;;;;;;;38.50;14.87;;;3.10;99.70;;;;;;4991626;28;20940;-66
2022/01/10 04:44:28;;;;;;;30.10;14.90;;;2.90;99.70;;;;;;5055861;23;20470;-60
2022/01/10 04:46:54;;;;;;;34.70;16.20;;;2.90;99.70;;;;;;5031160;28;20440;-60
2022/01/10 04:49:24;;;;;;;32.53;15.20;;;2.90;99.70;;;;;;5033286;28;20440;-61
2022/01/10 04:51:52;;;;;;;30.47;15.10;;;2.80;99.70;;;;;;5034883;28;20449;-60
2022/01/10 04:54:19;;;;;;;28.53;13.53;;;2.80;99.70;;;;;;5034820;28;20437;-60
2022/01/10 04:56:47;;;;;;;30.30;14.50;;;2.80;99.70;;;;;;5034701;28;20432;-63
2022/01/10 04:59:14;;;;;;;30.90;13.70;;;2.90;99.70;;;;;;5034185;28;20487;-62
2022/01/10 05:01:41;;;;;;;34.90;15.77;;;3.10;99.70;;;;;;5034947;28;20498;-60
2022/01/10 05:04:09;;;;;;;33.13;13.50;;;3.00;99.70;;;;;;5034542;28;20839;-66
2022/01/10 05:06:36;;;;;;;25.83;12.17;;;2.90;99.70;;;;;;5034669;28;20804;-64
2022/01/10 05:09:03;;;;;;;27.60;12.27;;;2.90;99.70;;;;;;5034021;28;20444;-62
2022/01/10 05:11:32;;;;;;;24.63;11.97;;;3.00;99.70;;;;;;5034512;28;20452;-60
2022/01/10 05:14:00;;;;;;;27.97;12.20;;;2.90;99.70;;;;;;5034454;28;20452;-60
2022/01/10 05:16:27;;;;;;;30.70;13.20;;;2.90;99.70;;;;;;5034318;28;20469;-59
2022/01/10 05:18:53;;;;;;;30.50;12.33;;;2.90;99.70;;;;;;5033904;28;20845;-59
2022/01/10 05:21:20;;;;;;;27.13;12.37;;;3.00;99.70;;;;;;5034289;28;20440;-60
2022/01/10 05:23:47;;;;;;;27.20;12.23;;;3.00;99.70;;;;;;5034231;28;20472;-62
2022/01/10 05:26:14;;;;;;;32.30;11.50;;;3.00;99.70;;;;;;5034129;28;20472;-59
2022/01/10 05:28:41;;;;;;;24.23;11.30;;;3.10;99.70;;;;;;5033943;28;20444;-58
2022/01/10 05:31:09;;;;;;;22.50;10.40;;;3.10;99.70;;;;;;5034056;28;20503;-63
2022/01/10 05:33:35;;;;;;;25.67;10.93;;;3.10;99.70;;;;;;5034255;28;20449;-57
2022/01/10 05:36:02;;;;;;;26.63;11.27;;;3.00;99.70;;;;;;5034369;28;20940;-58
2022/01/10 05:38:29;;;;;;;27.10;11.63;;;3.10;99.70;;;;;;5033735;28;20484;-59
2022/01/10 05:40:55;;;;;;;23.13;10.30;;;3.00;99.70;;;;;;5034187;28;20448;-59
2022/01/10 05:43:22;;;;;;;33.80;11.67;;;3.20;99.70;;;;;;5034359;28;20984;-62
2022/01/10 05:45:49;;;;;;;27.70;11.00;;;3.30;99.70;;;;;;5033527;28;20994;-60
2022/01/10 05:48:22;;;;;;;26.43;11.17;;;3.10;99.70;;;;;;5033367;28;21024;-58
2022/01/10 05:50:49;;;;;;;28.60;11.20;;;3.10;99.70;;;;;;5033680;28;20451;-59
2022/01/10 05:53:16;;;;;;;24.23;10.40;;;3.10;99.70;;;;;;5033953;28;20850;-56
2022/01/10 05:55:43;;;;;;;24.63;10.83;;;3.10;99.70;;;;;;5033497;28;20837;-59
2022/01/10 05:58:10;;;;;;;24.13;10.87;;;3.30;99.70;;;;;;5020212;28;20438;-55
2022/01/10 06:00:38;;;;;;;25.10;10.47;;;3.40;99.70;;;;;;5022891;28;20447;-58
2022/01/10 06:03:05;;;;;;;26.43;10.93;;;3.30;99.70;;;;;;5023581;28;20477;-58
2022/01/10 06:05:33;;;;;;;26.30;11.30;;;3.20;99.70;;;;;;5021149;28;20468;-62
2022/01/10 06:08:02;;;;;;;23.10;10.00;;;3.10;99.70;;;;;;5019491;28;20452;-59
2022/01/10 06:10:29;;;;;;;22.50;10.43;;;3.10;99.70;;;;;;5013468;28;20507;-58
2022/01/10 06:12:57;;;;;;;34.13;12.50;;;3.10;99.70;;;;;;5013441;28;20456;-58
2022/01/10 06:15:24;;;;;;;30.97;12.63;;;3.10;99.70;;;;;;5028073;28;20473;-56
2022/01/10 06:17:52;;;;;;;33.20;12.07;;;3.00;99.70;;;;;;5022058;28;20448;-56
2022/01/10 06:20:19;;;;;;;26.30;12.10;;;3.10;99.70;;;;;;5023773;28;20479;-61
2022/01/10 06:22:47;;;;;;;30.83;11.20;;;3.00;99.70;;;;;;5026801;28;20448;-59
2022/01/10 06:25:17;;;;;;;23.97;11.67;;;3.00;99.70;;;;;;5024726;28;20490;-61
2022/01/10 06:27:44;;;;;;;22.77;10.60;;;3.00;99.70;;;;;;5024219;28;20540;-60
2022/01/10 06:30:12;;;;;;;27.07;10.70;;;3.00;99.70;;;;;;5020260;28;20525;-60
2022/01/10 06:32:38;;;;;;;26.67;11.30;;;3.00;99.70;;;;;;5027367;28;20930;-59
2022/01/10 06:35:06;;;;;;;25.53;10.50;;;3.20;99.70;;;;;;5028627;28;20476;-63
2022/01/10 06:37:33;;;;;;;26.50;10.43;;;3.30;99.70;;;;;;5032543;28;20441;-63
2022/01/10 06:40:02;;;;;;;26.33;10.13;;;3.60;99.70;;;;;;5032396;28;20488;-60
2022/01/10 06:42:28;;;;;;;27.63;9.83;;;3.60;99.70;;;;;;5032554;28;20448;-60
2022/01/10 06:44:55;;;;;;;24.43;10.20;;;3.30;99.70;;;;;;5032182;28;20476;-60
2022/01/10 06:47:22;;;;;;;28.37;9.80;;;3.20;99.70;;;;;;5032434;28;20471;-63
2022/01/10 06:49:49;;;;;;;25.03;9.67;;;3.10;99.70;;;;;;5032112;28;20441;-60
2022/01/10 06:52:16;;;;;;;25.33;10.43;;;3.10;99.70;;;;;;5032496;28;20461;-61
2022/01/10 06:54:42;;;;;;;27.47;10.10;;;3.00;99.70;;;;;;5032171;28;20822;-62
2022/01/10 06:57:11;;;;;;;24.83;9.63;;;2.80;99.70;;;;;;5032504;28;20452;-61
2022/01/10 06:59:37;;;;;;;29.53;12.10;;;2.90;99.70;;;;;;5029412;28;20488;-59
2022/01/10 07:02:04;;;;;;;26.50;10.13;;;3.30;99.70;;;;;;5030994;28;21039;-59
2022/01/10 07:04:32;;;;;;;24.70;10.50;;;3.20;99.70;;;;;;5031224;28;20530;-60
2022/01/10 07:06:59;;;;;;;29.73;11.00;;;3.20;99.70;;;;;;5032052;28;20444;-59
2022/01/10 07:09:25;;;;;;;25.27;10.20;;;3.50;99.70;;;;;;5031154;28;20510;-59
2022/01/10 07:11:52;;;;;;;28.43;10.30;;;3.30;99.70;;;;;;5032354;28;20449;-58
2022/01/10 07:14:20;;;;;;;24.87;10.10;;;3.20;99.70;;;;;;5032103;28;20444;-60
2022/01/10 07:16:49;;;;;;;27.70;10.90;;;3.30;99.70;;;;;;5031504;28;20444;-59
2022/01/10 07:19:16;;;;;;;30.73;11.10;;;3.20;99.70;;;;;;5031506;28;20491;-63
2022/01/10 07:21:43;;;;;;;37.90;12.40;;;3.20;99.70;;;;;;5031593;28;20449;-60
2022/01/10 07:24:11;;;;;;;29.97;11.17;;;3.20;99.70;;;;;;5031814;28;20518;-60
2022/01/10 07:26:37;;;;;;;28.23;10.27;;;3.30;99.70;;;;;;5026577;28;20489;-60
2022/01/10 07:29:07;;;;;;;29.30;10.67;;;3.20;99.70;;;;;;5022462;28;20826;-60
2022/01/10 07:31:35;;;;;;;26.57;11.13;;;3.10;99.70;;;;;;5014162;28;21111;-60
2022/01/10 07:34:03;;;;;;;25.60;10.60;;;3.30;99.70;;;;;;5013076;28;20449;-58
2022/01/10 07:36:29;;;;;;;25.63;10.53;;;3.30;99.70;;;;;;5013283;28;20476;-60
2022/01/10 07:38:56;;;;;;;27.73;10.33;;;3.30;99.70;;;;;;5019460;28;20485;-60
2022/01/10 07:41:23;;;;;;;27.10;10.80;;;3.20;99.70;;;;;;5014047;28;20464;-62
2022/01/10 07:43:50;;;;;;;28.27;11.03;;;3.30;99.70;;;;;;5012910;28;20450;-60
2022/01/10 07:46:18;;;;;;;29.07;11.60;;;3.40;99.70;;;;;;5013765;28;20477;-57
2022/01/10 07:48:47;;;;;;;32.83;12.20;;;3.40;99.70;;;;;;5021131;28;20460;-60
2022/01/10 07:51:14;;;;;;;31.07;10.53;;;3.40;99.70;;;;;;5013725;28;20449;-64
2022/01/10 07:53:42;;;;;;;33.17;12.00;;;3.30;99.70;;;;;;5012626;28;20454;-62
2022/01/10 07:56:09;;;;;;;29.90;11.20;;;3.20;99.70;;;;;;5013034;28;20466;-62
2022/01/10 07:58:36;;;;;;;33.57;12.73;;;3.30;99.70;;;;;;5012433;28;20969;-61
2022/01/10 08:01:03;;;;;;;37.87;12.23;;;3.40;99.70;;;;;;5016941;28;20454;-64
2022/01/10 08:03:30;;;;;;;32.87;12.00;;;3.30;99.70;;;;;;5013684;28;20450;-60
2022/01/10 08:05:58;;;;;;;32.97;11.63;;;3.30;99.70;;;;;;5012480;28;20474;-62
2022/01/10 08:08:25;;;;;;;27.10;11.63;;;3.40;99.70;;;;;;5024087;28;20879;-56
2022/01/10 08:10:52;;;;;;;32.40;12.57;;;3.50;99.70;;;;;;5012271;28;20469;-60
2022/01/10 08:13:19;;;;;;;27.70;11.37;;;3.40;99.70;;;;;;5013832;28;20452;-61
2022/01/10 08:15:46;;;;;;;33.20;12.47;;;3.40;99.70;;;;;;5012497;28;20473;-59
2022/01/10 08:18:13;;;;;;;35.17;13.20;;;3.50;99.70;;;;;;5024074;28;20445;-59
2022/01/10 08:20:39;;;;;;;33.90;13.13;;;3.40;99.70;;;;;;5012386;28;20488;-62
2022/01/10 08:23:07;;;;;;;33.53;12.80;;;3.50;99.70;;;;;;5012795;28;20499;-60
2022/01/10 08:25:34;;;;;;;32.47;12.67;;;3.40;99.70;;;;;;5019706;28;20885;-58
2022/01/10 08:28:01;;;;;;;31.90;11.40;;;3.40;99.70;;;;;;5018647;28;20464;-58
2022/01/10 08:30:28;;;;;;;30.60;12.70;;;3.50;99.70;;;;;;5012366;28;20472;-59
2022/01/10 08:32:54;;;;;;;29.97;12.90;;;3.50;99.70;;;;;;5013268;28;20454;-58
2022/01/10 08:35:21;;;;;;;36.73;13.80;;;3.50;99.70;;;;;;5027781;28;20464;-59
2022/01/10 08:37:48;;;;;;;41.77;15.00;;;3.40;99.70;;;;;;5012319;28;20503;-58
2022/01/10 08:40:17;;;;;;;38.17;14.23;;;3.40;99.70;;;;;;5018534;28;20476;-60
2022/01/10 08:42:43;;;;;;;34.50;14.20;;;3.40;99.70;;;;;;5021690;28;20465;-58
2022/01/10 08:45:11;;;;;;;36.33;14.57;;;3.40;99.70;;;;;;5020212;28;20492;-58
2022/01/10 08:47:38;;;;;;;33.23;13.90;;;3.40;99.70;;;;;;5028679;28;20444;-58
2022/01/10 08:50:07;;;;;;;34.63;13.27;;;3.40;99.70;;;;;;5021661;28;20495;-57
2022/01/10 08:52:34;;;;;;;36.33;14.00;;;3.40;99.70;;;;;;5020314;28;20457;-59
2022/01/10 08:55:01;;;;;;;33.87;13.10;;;3.70;99.70;;;;;;5017672;28;20487;-58
2022/01/10 08:57:29;;;;;;;33.00;12.90;;;3.70;99.70;;;;;;5023251;28;20922;-57
2022/01/10 08:59:55;;;;;;;34.83;14.30;;;3.60;99.70;;;;;;5026721;28;20808;-56
2022/01/10 09:02:22;;;;;;;33.40;13.03;;;3.60;99.70;;;;;;5014908;28;20449;-59
2022/01/10 09:04:49;;;;;;;33.90;13.40;;;3.50;99.70;;;;;;5011241;28;20461;-59
2022/01/10 09:07:15;;;;;;;38.57;13.93;;;3.70;99.70;;;;;;5025945;28;20469;-58
2022/01/10 09:09:43;;;;;;;34.90;13.93;;;3.90;99.70;;;;;;5024018;28;20449;-61
2022/01/10 09:12:10;;;;;;;32.43;14.37;;;3.80;99.70;;;;;;5021438;28;20903;-58
2022/01/10 09:14:38;;;;;;;35.73;12.53;;;3.70;99.70;;;;;;5026169;28;20461;-59
2022/01/10 09:17:05;;;;;;;39.70;15.30;;;3.80;99.70;;;;;;5026248;28;20949;-58
2022/01/10 09:19:32;;;;;;;35.60;13.23;;;3.80;99.70;;;;;;5027884;28;21035;-60
2022/01/10 09:21:59;;;;;;;31.57;13.20;;;3.70;99.70;;;;;;5027382;28;20454;-60
2022/01/10 09:24:25;;;;;;;38.20;14.57;;;3.70;99.70;;;;;;5028336;28;20444;-62
2022/01/10 09:26:52;;;;;;;35.77;14.20;;;3.70;99.70;;;;;;5019853;28;20468;-63
2022/01/10 09:29:19;;;;;;;35.93;14.07;;;3.70;99.70;;;;;;5023725;28;20506;-61
2022/01/10 09:31:47;;;;;;;37.33;14.43;;;3.70;99.70;;;;;;5020100;28;20453;-61
2022/01/10 09:34:14;;;;;;;36.00;14.60;;;3.70;99.70;;;;;;5030920;28;20643;-62
2022/01/10 09:36:41;;;;;;;35.23;13.40;;;3.60;99.70;;;;;;5030219;28;20445;-62
2022/01/10 09:39:08;;;;;;;33.83;13.43;;;3.80;99.70;;;;;;5014465;28;20442;-57
2022/01/10 09:41:36;;;;;;;34.70;14.70;;;3.90;99.70;;;;;;5020956;28;20480;-61
2022/01/10 09:44:06;;;;;;;36.93;14.27;;;3.80;99.70;;;;;;5018771;28;20448;-61
2022/01/10 09:46:33;;;;;;;30.77;11.63;;;3.90;99.70;;;;;;5020253;28;20512;-62
2022/01/10 09:49:02;;;;;;;35.87;13.40;;;3.90;99.70;;;;;;5016981;28;20458;-60
2022/01/10 09:51:30;;;;;;;35.57;13.97;;;3.80;99.70;;;;;;5020534;28;20958;-59
2022/01/10 09:53:59;;;;;;;37.90;14.80;;;3.80;99.70;;;;;;5015009;28;20449;-58
2022/01/10 09:56:28;;;;;;;34.40;13.57;;;3.90;99.70;;;;;;5017284;28;20469;-63
2022/01/10 09:58:55;;;;;;;32.50;13.10;;;3.90;99.70;;;;;;5028190;28;20441;-59
2022/01/10 10:01:22;;;;;;;30.50;12.50;;;4.10;99.70;;;;;;5028195;28;20488;-62
2022/01/10 10:03:50;;;;;;;31.10;12.30;;;4.00;99.70;;;;;;5026323;28;20464;-60
2022/01/10 10:06:20;;;;;;;35.47;13.10;;;3.90;99.70;;;;;;5025768;28;20491;-60
2022/01/10 10:08:46;;;;;;;33.40;13.30;;;3.80;99.70;;;;;;5028809;28;20451;-59
2022/01/10 10:11:15;;;;;;;36.00;13.60;;;3.90;99.70;;;;;;5031243;28;20202;-60
2022/01/10 10:13:44;;;;;;;34.83;12.30;;;3.80;99.70;;;;;;5016757;28;20553;-64
2022/01/10 10:16:14;;;;;;;36.87;12.63;;;3.90;99.70;;;;;;5014423;28;21181;-59
2022/01/10 10:18:43;;;;;;;36.93;12.90;;;3.90;99.70;;;;;;5015173;28;20450;-61
2022/01/10 10:21:15;;;;;;;31.47;12.50;;;3.90;99.70;;;;;;5030800;28;21060;-59
2022/01/10 10:23:46;;;;;;;31.57;12.40;;;3.70;99.70;;;;;;5029688;28;20453;-61
2022/01/10 10:26:15;;;;;;;31.57;12.40;;;3.70;99.70;;;;;;5031164;28;20889;-62
2022/01/10 10:28:42;;;;;;;29.87;11.47;;;3.70;99.70;;;;;;5027089;28;20446;-59
2022/01/10 10:31:09;;;;;;;30.93;11.20;;;3.70;99.70;;;;;;5029240;28;20449;-60
2022/01/10 10:33:36;;;;;;;39.67;11.30;;;3.70;99.70;;;;;;5029530;28;20520;-61
2022/01/10 10:36:08;;;;;;;27.60;11.20;;;3.70;99.70;;;;;;5028185;28;20480;-60
2022/01/10 10:38:34;;;;;;;33.20;12.27;;;3.80;99.70;;;;;;5023708;28;20440;-59
2022/01/10 10:41:04;;;;;;;26.53;11.10;;;3.90;99.70;;;;;;5025866;28;20829;-61
2022/01/10 10:43:32;;;;;;;29.47;11.10;;;4.00;99.70;;;;;;5017179;28;20452;-62
2022/01/10 10:46:01;;;;;;;28.83;10.87;;;4.00;99.70;;;;;;5023373;28;20572;-61
2022/01/10 10:48:28;;;;;;;28.80;9.17;;;4.00;99.70;;;;;;5025198;28;20444;-61
2022/01/10 10:50:59;;;;;;;27.57;10.43;;;4.00;99.70;;;;;;5023712;28;20464;-62
2022/01/10 10:53:28;;;;;;;22.03;9.27;;;4.00;99.70;;;;;;5024137;28;20471;-60
2022/01/10 10:55:58;;;;;;;24.47;9.93;;;4.00;99.70;;;;;;5019592;28;20483;-64
2022/01/10 10:58:27;;;;;;;24.27;9.73;;;4.10;99.70;;;;;;5017517;28;20442;-62
2022/01/10 11:00:55;;;;;;;24.63;8.80;;;4.20;99.70;;;;;;5023843;28;20897;-64
2022/01/10 11:03:23;;;;;;;26.40;9.00;;;4.10;99.70;;;;;;5021645;28;20535;-62
2022/01/10 11:05:51;;;;;;;29.60;9.50;;;4.00;99.70;;;;;;5023917;28;20466;-64
2022/01/10 11:08:18;;;;;;;20.37;8.33;;;4.00;99.70;;;;;;5021603;28;20464;-58
2022/01/10 11:10:45;;;;;;;19.93;8.00;;;3.90;99.70;;;;;;5026413;28;20444;-61
2022/01/10 11:13:13;;;;;;;24.53;8.50;;;3.80;99.70;;;;;;5022572;28;20938;-62
2022/01/10 11:15:42;;;;;;;24.97;9.53;;;3.70;99.70;;;;;;5022174;28;20476;-63
2022/01/10 11:18:10;;;;;;;24.40;9.43;;;3.80;99.70;;;;;;5047329;23;20488;-67
2022/01/10 11:20:44;;;;;;;21.20;8.77;;;3.90;99.70;;;;;;5030320;28;20823;-67
2022/01/10 11:23:12;;;;;;;21.10;8.20;;;4.10;99.70;;;;;;5027285;28;20449;-67
2022/01/10 11:25:40;;;;;;;23.60;8.20;;;4.20;99.70;;;;;;5027237;28;20458;-67
2022/01/10 11:28:09;;;;;;;26.13;9.63;;;4.20;99.70;;;;;;5029484;28;20844;-68
2022/01/10 11:30:38;;;;;;;20.00;8.60;;;4.30;99.70;;;;;;5022694;28;20501;-67
2022/01/10 11:33:08;;;;;;;23.53;8.80;;;4.30;99.70;;;;;;5017396;28;21073;-67
2022/01/10 11:35:38;;;;;;;26.30;10.37;;;4.20;99.70;;;;;;5026394;28;20447;-66
2022/01/10 11:38:18;;;;;;;24.30;10.23;;;4.20;99.70;;;;;;5030506;28;20461;-65
2022/01/10 11:40:47;;;;;;;20.90;8.30;;;4.20;99.70;;;;;;5030426;28;20225;-65
2022/01/10 11:43:32;;;;;;;24.03;8.70;;;4.30;99.70;;;;;;5029037;28;20448;-65
2022/01/10 11:46:08;;;;;;;21.03;8.87;;;4.40;99.70;;;;;;5029996;28;20501;-65
2022/01/10 11:48:50;;;;;;;21.50;8.33;;;4.30;99.70;;;;;;5020081;28;20461;-65
2022/01/10 11:51:20;;;;;;;24.13;8.87;;;4.10;99.70;;;;;;5020902;28;20519;-65
2022/01/10 11:53:50;;;;;;;21.50;8.17;;;4.20;99.70;;;;;;5016737;28;20964;-65
2022/01/10 11:56:23;;;;;;;21.60;8.00;;;4.10;99.70;;;;;;5024106;28;20461;-64
2022/01/10 11:59:14;;;;;;;19.33;7.80;;;4.00;99.70;;;;;;5022681;28;20555;-65
2022/01/10 12:01:43;;;;;;;23.10;8.13;;;4.10;99.70;;;;;;5018330;28;20859;-66
2022/01/10 12:04:11;;;;;;;20.53;8.00;;;4.10;99.70;;;;;;5015409;28;20981;-66
2022/01/10 12:06:38;;;;;;;22.07;8.80;;;4.20;99.70;;;;;;5021695;28;20468;-66
2022/01/10 12:09:06;;;;;;;20.60;8.50;;;4.20;99.70;;;;;;5030410;28;20461;-66
2022/01/10 12:11:33;;;;;;;24.97;8.60;;;4.50;99.70;;;;;;5012614;28;20441;-66
2022/01/10 12:14:00;;;;;;;20.83;9.30;;;4.60;99.70;;;;;;5010935;28;20813;-66
2022/01/10 12:16:28;;;;;;;20.33;8.20;;;4.60;99.70;;;;;;5020589;28;20464;-66
2022/01/10 12:18:56;;;;;;;26.50;10.43;;;5.10;99.70;;;;;;5022180;28;20862;-66
2022/01/10 12:21:24;;;;;;;24.83;9.17;;;5.10;99.70;;;;;;5014840;28;20579;-66
2022/01/10 12:23:52;;;;;;;26.43;9.20;;;4.90;99.70;;;;;;5017621;28;20480;-67
2022/01/10 12:26:20;;;;;;;24.00;8.43;;;4.80;99.70;;;;;;5016278;28;20453;-67
2022/01/10 12:28:51;;;;;;;25.53;10.57;;;4.80;99.70;;;;;;5011775;28;20960;-66
2022/01/10 12:31:21;;;;;;;28.97;9.07;;;5.10;99.70;;;;;;5015604;28;20544;-66
2022/01/10 12:33:49;;;;;;;27.07;8.80;;;5.00;99.70;;;;;;5020049;28;20449;-66
2022/01/10 12:36:16;;;;;;;27.20;9.63;;;4.90;99.70;;;;;;5026982;28;20476;-65
2022/01/10 12:38:44;;;;;;;24.37;8.90;;;4.80;99.70;;;;;;5021056;28;20506;-67
2022/01/10 12:41:11;;;;;;;24.50;9.97;;;4.90;99.70;;;;;;5022573;28;21081;-66
2022/01/10 12:43:38;;;;;;;27.80;10.03;;;5.30;99.70;;;;;;5015138;28;20449;-66